createdAt,value
2023-01-07T00:04:37.812Z,20.30
2023-01-07T00:09:40.435Z,20.30
2023-01-07T00:14:43.109Z,20.20
2023-01-07T00:19:47.123Z,20.20
2023-01-07T00:24:49.797Z,20.20
2023-01-07T00:29:52.465Z,20.20
2023-01-07T00:34:56.440Z,20.20
2023-01-07T00:39:59.056Z,20.20
2023-01-07T00:45:01.700Z,20.20
2023-01-07T00:50:06.103Z,20.20
2023-01-07T00:55:11.119Z,20.20
2023-01-07T01:00:15.496Z,20.20
2023-01-07T01:05:19.892Z,20.20
2023-01-07T01:10:22.649Z,20.20
2023-01-07T01:15:25.370Z,20.20
2023-01-07T01:20:29.409Z,20.10
2023-01-07T01:25:32.131Z,20.20
2023-01-07T01:30:34.809Z,20.20
2023-01-07T01:35:43.098Z,20.20
2023-01-07T01:40:45.763Z,20.10
2023-01-07T01:45:48.858Z,20.20
2023-01-07T01:50:53.188Z,20.00
2023-01-07T01:56:02.931Z,20.10
2023-01-07T02:01:05.947Z,20.10
2023-01-07T02:06:11.784Z,20.10
2023-01-07T02:11:18.712Z,20.10
2023-01-07T02:16:24.249Z,20.10
2023-01-07T02:21:38.326Z,20.10
2023-01-07T02:27:02.005Z,20.10
2023-01-07T02:32:18.472Z,20.00
2023-01-07T02:37:26.307Z,20.10
2023-01-07T02:42:32.915Z,20.00
2023-01-07T02:47:38.623Z,20.10
2023-01-07T02:52:41.304Z,20.00
2023-01-07T02:58:02.335Z,20.00
2023-01-07T03:03:22.084Z,20.00
2023-01-07T03:08:34.603Z,20.00
2023-01-07T03:13:39.075Z,19.90
2023-01-07T03:18:45.093Z,19.90
2023-01-07T03:23:50.108Z,20.00
2023-01-07T03:28:53.224Z,20.00
2023-01-07T03:34:00.345Z,19.90
2023-01-07T03:39:03.521Z,20.00
2023-01-07T03:44:06.357Z,19.90
2023-01-07T03:49:10.371Z,20.00
2023-01-07T03:54:13.179Z,20.00
2023-01-07T03:59:15.863Z,19.90
2023-01-07T04:04:20.106Z,19.90
2023-01-07T04:09:22.828Z,20.00
2023-01-07T04:14:25.535Z,19.90
2023-01-07T04:19:29.508Z,19.90
2023-01-07T04:24:32.183Z,19.90
2023-01-07T04:29:34.887Z,19.90
2023-01-07T04:34:38.851Z,19.80
2023-01-07T04:39:41.544Z,19.90
2023-01-07T04:44:44.327Z,19.90
2023-01-07T04:49:48.372Z,19.80
2023-01-07T04:54:50.999Z,19.90
2023-01-07T04:59:53.678Z,19.80
2023-01-07T05:04:57.686Z,19.90
2023-01-07T05:10:00.369Z,19.90
2023-01-07T05:15:03.018Z,19.80
2023-01-07T05:20:08.158Z,19.80
2023-01-07T05:25:11.042Z,19.90
2023-01-07T05:30:13.837Z,19.80
2023-01-07T05:35:17.809Z,19.90
2023-01-07T05:40:20.484Z,19.90
2023-01-07T05:45:23.188Z,19.80
2023-01-07T05:50:27.185Z,19.80
2023-01-07T05:55:29.832Z,19.90
2023-01-07T06:00:32.497Z,19.80
2023-01-07T06:05:36.493Z,19.90
2023-01-07T06:10:39.285Z,19.80
2023-01-07T06:15:41.967Z,19.90
2023-01-07T06:20:46.004Z,20.00
2023-01-07T06:25:48.876Z,20.10
2023-01-07T06:30:51.595Z,20.20
2023-01-07T06:35:55.662Z,20.30
2023-01-07T06:40:58.641Z,20.40
2023-01-07T06:46:01.430Z,20.50
2023-01-07T06:51:05.519Z,20.40
2023-01-07T06:56:08.220Z,20.50
2023-01-07T07:01:11.063Z,20.60
2023-01-07T07:06:15.078Z,20.60
2023-01-07T07:11:17.700Z,20.70
2023-01-07T07:16:22.494Z,20.70
2023-01-07T07:21:26.593Z,20.80
2023-01-07T07:26:29.308Z,20.80
2023-01-07T07:31:32.002Z,20.90
2023-01-07T07:36:36.053Z,20.90
2023-01-07T07:41:38.771Z,20.90
2023-01-07T07:46:42.162Z,21.00
2023-01-07T07:51:46.280Z,21.10
2023-01-07T07:56:48.961Z,21.00
2023-01-07T08:01:51.783Z,21.10
2023-01-07T08:06:56.280Z,21.10
2023-01-07T08:11:58.915Z,21.20
2023-01-07T08:17:01.613Z,21.10
2023-01-07T08:22:05.620Z,21.20
2023-01-07T08:27:08.236Z,21.30
2023-01-07T08:32:10.862Z,21.30
2023-01-07T08:37:14.852Z,21.40
2023-01-07T08:42:18.139Z,21.40
2023-01-07T08:47:20.834Z,21.40
2023-01-07T08:52:25.577Z,21.40
2023-01-07T08:57:28.207Z,21.40
2023-01-07T09:02:30.970Z,21.50
2023-01-07T09:07:35.069Z,21.50
2023-01-07T09:12:38.091Z,21.40
2023-01-07T09:17:40.807Z,21.40
2023-01-07T09:22:44.820Z,21.40
2023-01-07T09:27:48.244Z,21.50
2023-01-07T09:32:50.952Z,21.50
2023-01-07T09:37:54.938Z,21.40
2023-01-07T09:43:01.806Z,21.50
2023-01-07T09:48:07.765Z,21.50
2023-01-07T09:53:15.265Z,21.50
2023-01-07T09:58:19.104Z,21.60
2023-01-07T10:03:26.727Z,21.50
2023-01-07T10:08:34.316Z,21.40
2023-01-07T10:13:42.741Z,21.40
2023-01-07T10:18:51.068Z,21.50
2023-01-07T10:23:58.436Z,21.50
2023-01-07T10:29:03.167Z,21.50
2023-01-07T10:34:07.667Z,21.50
2023-01-07T10:39:18.356Z,21.50
2023-01-07T10:44:39.419Z,21.40
2023-01-07T10:49:51.856Z,21.50
2023-01-07T10:55:01.141Z,21.50
2023-01-07T11:00:06.982Z,21.50
2023-01-07T11:05:14.048Z,21.50
2023-01-07T11:10:19.951Z,21.50
2023-01-07T11:15:24.400Z,21.40
2023-01-07T11:20:42.848Z,21.50
2023-01-07T11:25:47.417Z,21.50
2023-01-07T11:30:57.334Z,21.50
2023-01-07T11:36:00.054Z,21.40
2023-01-07T11:41:05.796Z,21.50
2023-01-07T11:46:19.816Z,21.50
2023-01-07T11:51:24.712Z,21.50
2023-01-07T11:56:29.972Z,21.50
2023-01-07T12:01:41.864Z,21.50
2023-01-07T12:06:45.561Z,21.50
2023-01-07T12:11:49.618Z,21.50
2023-01-07T12:16:52.733Z,21.50
2023-01-07T12:22:02.256Z,21.50
2023-01-07T12:27:11.992Z,21.50
2023-01-07T12:32:18.782Z,21.50
2023-01-07T12:37:29.431Z,21.60
2023-01-07T12:42:36.660Z,21.50
2023-01-07T12:47:41.083Z,21.60
2023-01-07T12:52:47.038Z,21.50
2023-01-07T12:57:56.301Z,21.60
2023-01-07T13:03:01.215Z,21.60
2023-01-07T13:08:09.281Z,21.60
2023-01-07T13:13:16.486Z,21.60
2023-01-07T13:18:20.512Z,21.60
2023-01-07T13:23:25.212Z,21.50
2023-01-07T13:28:43.016Z,21.60
2023-01-07T13:33:48.259Z,21.60
2023-01-07T13:38:56.529Z,21.60
2023-01-07T13:44:07.781Z,21.60
2023-01-07T13:49:23.526Z,21.60
2023-01-07T13:54:44.952Z,21.60
2023-01-07T13:59:50.344Z,21.50
2023-01-07T14:05:05.291Z,21.60
2023-01-07T14:10:18.184Z,21.60
2023-01-07T14:15:41.826Z,21.60
2023-01-07T14:20:48.608Z,21.70
2023-01-07T14:25:58.659Z,21.60
2023-01-07T14:31:01.409Z,21.60
2023-01-07T14:36:07.628Z,21.70
2023-01-07T14:41:11.015Z,21.60
2023-01-07T14:46:28.571Z,21.70
2023-01-07T14:51:45.733Z,21.60
2023-01-07T14:56:53.795Z,21.70
2023-01-07T15:02:09.468Z,21.70
2023-01-07T15:07:15.911Z,21.70
2023-01-07T15:12:37.667Z,21.70
2023-01-07T15:17:40.879Z,21.60
2023-01-07T15:23:01.280Z,21.70
2023-01-07T15:28:10.023Z,21.60
2023-01-07T15:33:21.958Z,21.70
2023-01-07T15:38:28.788Z,21.70
2023-01-07T15:43:32.871Z,21.80
2023-01-07T15:48:35.563Z,21.80
2023-01-07T15:53:38.987Z,21.80
2023-01-07T15:58:44.809Z,21.70
2023-01-07T16:03:49.593Z,21.80
2023-01-07T16:08:52.328Z,21.70
2023-01-07T16:13:57.950Z,21.80
2023-01-07T16:19:01.496Z,21.90
2023-01-07T16:24:04.361Z,21.80
2023-01-07T16:29:09.680Z,21.80
2023-01-07T16:34:38.478Z,21.80
2023-01-07T16:39:42.351Z,21.80
2023-01-07T16:45:03.136Z,21.80
2023-01-07T16:50:24.472Z,21.80
2023-01-07T16:55:45.827Z,21.90
2023-01-07T17:00:51.800Z,21.90
2023-01-07T17:06:02.244Z,21.90
2023-01-07T17:11:08.004Z,21.90
2023-01-07T17:16:25.991Z,21.90
2023-01-07T17:21:49.427Z,21.90
2023-01-07T17:26:52.349Z,21.90
2023-01-07T17:31:56.467Z,21.90
2023-01-07T17:36:59.279Z,21.90
2023-01-07T17:42:19.368Z,22.00
2023-01-07T17:47:23.383Z,22.00
2023-01-07T17:52:26.030Z,22.00
2023-01-07T17:57:28.646Z,22.00
2023-01-07T18:02:32.806Z,22.00
2023-01-07T18:07:35.593Z,21.90
2023-01-07T18:12:39.974Z,22.00
2023-01-07T18:17:44.019Z,22.00
2023-01-07T18:22:46.713Z,22.10
2023-01-07T18:27:52.531Z,22.10
2023-01-07T18:32:56.607Z,22.10
2023-01-07T18:37:59.226Z,22.00
2023-01-07T18:43:02.108Z,22.00
2023-01-07T18:48:06.403Z,22.10
2023-01-07T18:53:09.591Z,22.10
2023-01-07T18:58:13.231Z,22.10
2023-01-07T19:03:17.202Z,22.10
2023-01-07T19:08:19.818Z,22.10
2023-01-07T19:13:22.974Z,22.10
2023-01-07T19:18:27.059Z,22.10
2023-01-07T19:23:29.713Z,22.10
2023-01-07T19:28:32.793Z,22.10
2023-01-07T19:33:37.147Z,22.20
2023-01-07T19:38:40.469Z,22.10
2023-01-07T19:43:43.413Z,22.20
2023-01-07T19:48:48.698Z,22.20
2023-01-07T19:53:51.372Z,22.20
2023-01-07T19:58:54.516Z,22.10
2023-01-07T20:03:58.983Z,22.20
2023-01-07T20:09:07.248Z,22.10
2023-01-07T20:14:10.632Z,22.20
2023-01-07T20:19:14.676Z,22.20
2023-01-07T20:24:17.418Z,22.20
2023-01-07T20:29:20.064Z,22.20
2023-01-07T20:34:24.119Z,22.20
2023-01-07T20:39:26.767Z,22.20
2023-01-07T20:44:29.436Z,22.20
2023-01-07T20:49:33.560Z,22.20
2023-01-07T20:54:36.258Z,22.20
2023-01-07T20:59:38.877Z,22.30
2023-01-07T21:04:42.929Z,22.30
2023-01-07T21:09:45.737Z,22.30
2023-01-07T21:14:48.404Z,22.20
2023-01-07T21:19:52.448Z,22.20
2023-01-07T21:24:55.371Z,22.30
2023-01-07T21:29:58.383Z,22.30
2023-01-07T21:35:02.633Z,22.20
2023-01-07T21:40:05.812Z,22.30
2023-01-07T21:45:08.863Z,22.30
2023-01-07T21:50:14.931Z,22.30
2023-01-07T21:55:17.741Z,22.40
2023-01-07T22:00:20.620Z,22.20
2023-01-07T22:05:25.487Z,22.30
2023-01-07T22:10:28.179Z,22.30
2023-01-07T22:15:31.196Z,22.20
2023-01-07T22:20:35.180Z,22.30
2023-01-07T22:25:37.869Z,22.30
2023-01-07T22:30:41.416Z,22.40
2023-01-07T22:35:45.596Z,22.30
2023-01-07T22:40:48.324Z,22.30
2023-01-07T22:45:52.582Z,22.40
2023-01-07T22:50:58.816Z,22.40
2023-01-07T22:56:01.672Z,22.30
2023-01-07T23:01:08.996Z,22.50
2023-01-07T23:06:14.379Z,22.40
2023-01-07T23:11:37.366Z,22.30
2023-01-07T23:16:40.330Z,22.20
2023-01-07T23:21:44.972Z,22.10
2023-01-07T23:26:47.740Z,22.00
2023-01-07T23:31:50.396Z,22.00
2023-01-07T23:36:54.396Z,22.00
2023-01-07T23:41:57.025Z,22.00
2023-01-07T23:46:59.695Z,22.00
2023-01-07T23:52:03.730Z,21.90
2023-01-07T23:57:06.414Z,21.80
